Time;durP1;ratioP1;P1;durP2;ratioP2;P2;SDS_P1;SDS_P2;PMS_P1;PMS_P2;Temp;Humidity;BMP_temperature;BMP_pressure;BME280_temperature;BME280_humidity;BME280_pressure;Samples;Min_cycle;Max_cycle;Signal;HPM_P1;HPM_P2
2022/03/31 05:07:31;;;;;;;45.13;25.03;;;8.20;92.80;;;;;;5063913;28;20458;-48
2022/03/31 06:49:57;;;;;;;31.70;19.43;;;8.50;93.50;;;;;;4988237;28;20534;-47
2022/03/31 06:52:24;;;;;;;40.37;20.93;;;8.50;93.60;;;;;;5021421;28;20486;-48
2022/03/31 06:54:51;;;;;;;28.50;18.90;;;8.60;93.70;;;;;;5026880;28;20478;-47
2022/03/31 06:57:19;;;;;;;32.20;19.53;;;8.60;93.30;;;;;;5031118;28;20494;-49
2022/03/31 06:59:46;;;;;;;34.83;19.43;;;8.70;93.50;;;;;;5033073;28;20949;-47
2022/03/31 07:02:13;;;;;;;34.27;20.57;;;8.70;93.60;;;;;;5029262;28;20483;-47
2022/03/31 07:04:41;;;;;;;34.50;19.63;;;8.70;93.10;;;;;;5046288;28;20465;-49
2022/03/31 07:07:09;;;;;;;28.27;15.93;;;8.70;93.20;;;;;;5048476;28;21098;-47
2022/03/31 07:09:37;;;;;;;31.30;19.40;;;8.60;93.40;;;;;;5047109;28;20882;-47
2022/03/31 07:12:06;;;;;;;38.43;21.90;;;8.70;93.10;;;;;;5048699;28;21183;-47
2022/03/31 07:14:37;;;;;;;36.63;21.47;;;8.80;93.20;;;;;;5045272;28;20553;-47
2022/03/31 07:17:05;;;;;;;31.80;19.83;;;8.90;93.10;;;;;;5047207;28;20480;-48
2022/03/31 07:19:33;;;;;;;27.60;18.43;;;9.00;93.00;;;;;;5029005;28;20874;-48
2022/03/31 07:22:00;;;;;;;36.40;20.10;;;9.00;92.70;;;;;;5046007;28;20785;-47
2022/03/31 07:24:29;;;;;;;34.23;18.83;;;9.10;92.80;;;;;;5027199;28;20888;-47
2022/03/31 07:26:56;;;;;;;40.73;22.43;;;9.20;93.10;;;;;;5039513;28;20481;-47
2022/03/31 07:29:23;;;;;;;35.57;21.37;;;9.20;92.90;;;;;;5032791;28;20554;-48
2022/03/31 07:31:51;;;;;;;31.97;21.10;;;9.30;93.00;;;;;;5050013;28;20488;-48
2022/03/31 07:34:18;;;;;;;39.03;21.20;;;9.30;92.60;;;;;;5051990;28;21583;-47
2022/03/31 07:36:45;;;;;;;35.57;22.13;;;9.30;92.40;;;;;;5052786;28;20472;-48
2022/03/31 07:39:12;;;;;;;37.00;21.30;;;9.40;92.40;;;;;;5054381;28;20476;-47
2022/03/31 07:41:41;;;;;;;41.60;21.27;;;9.40;92.60;;;;;;5052387;28;21081;-47
2022/03/31 07:44:08;;;;;;;38.10;20.97;;;9.40;92.60;;;;;;5054283;28;20481;-47
2022/03/31 07:46:36;;;;;;;38.00;21.33;;;9.50;92.60;;;;;;5040098;28;20602;-47
2022/03/31 07:49:03;;;;;;;40.70;21.47;;;9.50;92.50;;;;;;5051415;28;20500;-47
2022/03/31 07:51:30;;;;;;;37.27;20.20;;;9.50;92.50;;;;;;5040619;28;20481;-50
2022/03/31 07:53:57;;;;;;;36.33;23.00;;;9.50;92.60;;;;;;5049903;28;20489;-48
2022/03/31 07:56:24;;;;;;;38.00;21.20;;;9.50;92.60;;;;;;5049753;28;20484;-47
2022/03/31 07:58:53;;;;;;;38.73;23.63;;;9.60;92.70;;;;;;5055194;28;21011;-48
2022/03/31 08:01:20;;;;;;;33.80;20.60;;;9.60;92.80;;;;;;5051362;28;20480;-48
2022/03/31 08:03:48;;;;;;;31.37;18.80;;;9.70;92.70;;;;;;5052512;28;21005;-47
2022/03/31 08:06:15;;;;;;;33.37;19.80;;;9.70;93.00;;;;;;5025188;28;21001;-47
2022/03/31 08:08:42;;;;;;;35.33;22.77;;;9.70;92.90;;;;;;5052399;28;21075;-50
2022/03/31 08:11:10;;;;;;;35.50;19.87;;;9.70;92.30;;;;;;5042706;28;20480;-48
2022/03/31 08:13:37;;;;;;;30.57;19.40;;;9.70;92.50;;;;;;5051064;28;20999;-48
2022/03/31 08:16:11;;;;;;;29.53;17.33;;;9.70;92.30;;;;;;5052904;28;20849;-48
2022/03/31 08:18:42;;;;;;;37.63;21.00;;;9.60;92.30;;;;;;5052988;28;21310;-48
2022/03/31 08:21:12;;;;;;;35.87;22.10;;;9.60;92.40;;;;;;5051274;28;20477;-48
2022/03/31 08:23:40;;;;;;;36.00;20.73;;;9.60;92.20;;;;;;5051550;28;20486;-47
2022/03/31 08:26:07;;;;;;;34.87;20.10;;;9.60;92.50;;;;;;5052261;28;20485;-47
2022/03/31 08:28:36;;;;;;;37.53;21.03;;;9.60;92.60;;;;;;5052254;28;20490;-47
2022/03/31 08:31:03;;;;;;;40.00;20.63;;;9.70;92.70;;;;;;5052098;28;20484;-47
2022/03/31 08:33:31;;;;;;;32.20;21.00;;;9.70;92.90;;;;;;5051525;28;20956;-47
2022/03/31 08:35:59;;;;;;;38.60;20.50;;;9.70;92.90;;;;;;5052889;28;20560;-47
2022/03/31 08:38:26;;;;;;;42.80;22.47;;;9.80;92.30;;;;;;5050964;28;20480;-48
2022/03/31 08:40:56;;;;;;;43.33;22.30;;;9.80;92.60;;;;;;5040070;28;20478;-47
2022/03/31 08:43:26;;;;;;;36.83;21.20;;;9.80;92.40;;;;;;5026941;28;20486;-48
2022/03/31 08:45:55;;;;;;;37.50;21.30;;;9.70;92.60;;;;;;5051009;28;20967;-48
2022/03/31 08:48:24;;;;;;;39.53;23.10;;;9.70;92.70;;;;;;5053024;28;20508;-47
2022/03/31 08:50:53;;;;;;;50.53;23.40;;;9.60;92.60;;;;;;5051809;28;21151;-48
2022/03/31 08:53:20;;;;;;;37.63;22.20;;;9.60;92.90;;;;;;5050414;28;20486;-48
2022/03/31 08:55:48;;;;;;;41.87;22.50;;;9.60;93.00;;;;;;5051617;28;20477;-48
2022/03/31 08:58:15;;;;;;;42.70;23.10;;;9.50;92.90;;;;;;5041136;28;20479;-48
2022/03/31 09:00:42;;;;;;;37.30;23.30;;;9.50;93.20;;;;;;5052037;28;20474;-49
2022/03/31 09:03:10;;;;;;;36.60;21.20;;;9.50;93.70;;;;;;5052383;28;20518;-48
2022/03/31 09:05:41;;;;;;;44.53;22.63;;;9.50;93.40;;;;;;5049983;28;21349;-48
2022/03/31 09:08:11;;;;;;;39.53;23.53;;;9.50;93.70;;;;;;5052150;28;20492;-48
2022/03/31 09:10:44;;;;;;;37.43;23.10;;;9.50;93.80;;;;;;5052070;28;20488;-48
2022/03/31 09:13:20;;;;;;;35.33;20.30;;;9.50;93.60;;;;;;5051753;28;20485;-48
2022/03/31 09:15:51;;;;;;;38.40;20.67;;;9.50;93.90;;;;;;5050139;28;20520;-48
2022/03/31 09:18:20;;;;;;;41.83;22.97;;;9.40;93.50;;;;;;5039942;28;20483;-47
2022/03/31 09:20:48;;;;;;;40.07;22.97;;;9.40;93.70;;;;;;5051498;28;20613;-48
2022/03/31 09:23:18;;;;;;;39.47;21.80;;;9.40;93.80;;;;;;5052832;28;20993;-47
2022/03/31 09:25:46;;;;;;;41.50;25.07;;;9.50;94.00;;;;;;5050859;28;20489;-47
2022/03/31 09:28:15;;;;;;;43.00;24.30;;;9.50;93.80;;;;;;5040464;28;20484;-47
2022/03/31 09:30:48;;;;;;;47.57;26.13;;;9.50;93.70;;;;;;5049886;28;20480;-48
2022/03/31 09:33:36;;;;;;;38.80;21.87;;;9.60;93.70;;;;;;5051333;28;20473;-48
2022/03/31 09:36:08;;;;;;;58.43;23.77;;;9.60;94.00;;;;;;5047798;28;20485;-47
2022/03/31 09:38:41;;;;;;;37.83;22.80;;;9.50;93.70;;;;;;5053147;28;20490;-48
2022/03/31 09:41:19;;;;;;;42.77;23.70;;;9.50;93.80;;;;;;5039743;28;20492;-48
2022/03/31 09:43:46;;;;;;;44.87;22.03;;;9.60;93.90;;;;;;5050897;28;21045;-48
2022/03/31 09:46:25;;;;;;;41.40;22.90;;;9.60;94.30;;;;;;5050656;28;20482;-47
2022/03/31 09:48:53;;;;;;;41.70;23.90;;;9.70;94.60;;;;;;5037481;28;20474;-48
2022/03/31 09:51:22;;;;;;;49.17;22.70;;;9.80;94.60;;;;;;5023954;28;20480;-47
2022/03/31 09:53:53;;;;;;;48.70;25.17;;;9.80;94.50;;;;;;5021722;28;20469;-47
2022/03/31 09:56:24;;;;;;;43.70;22.93;;;9.80;94.10;;;;;;5050875;28;20473;-48
2022/03/31 09:58:53;;;;;;;43.53;22.97;;;9.80;93.90;;;;;;5051449;28;21104;-48
2022/03/31 10:01:21;;;;;;;48.83;24.80;;;9.80;94.40;;;;;;5048908;28;20510;-48
2022/03/31 10:03:49;;;;;;;40.10;23.83;;;10.00;94.70;;;;;;5049030;28;20921;-48
2022/03/31 10:06:17;;;;;;;44.50;26.40;;;10.00;95.00;;;;;;5051513;28;20591;-47
2022/03/31 10:08:46;;;;;;;48.67;28.63;;;10.20;94.20;;;;;;5050000;28;21076;-48
2022/03/31 10:11:17;;;;;;;47.07;26.07;;;10.20;93.80;;;;;;5050777;28;20580;-48
2022/03/31 10:13:48;;;;;;;44.77;24.23;;;10.10;93.50;;;;;;5037770;28;20467;-48
2022/03/31 10:16:20;;;;;;;39.43;24.27;;;10.20;93.60;;;;;;5050914;28;20779;-48
2022/03/31 10:18:48;;;;;;;43.23;23.73;;;10.10;93.70;;;;;;5051069;28;20549;-48
2022/03/31 10:21:27;;;;;;;48.23;26.60;;;10.20;94.20;;;;;;5051390;28;20461;-48
2022/03/31 10:26:41;;;;;;;55.60;24.70;;;10.20;93.20;;;;;;5049308;28;20864;-48
2022/03/31 10:29:13;;;;;;;41.63;22.30;;;10.20;92.90;;;;;;5039454;28;20513;-48
2022/03/31 10:31:42;;;;;;;40.83;19.97;;;10.10;92.80;;;;;;5043085;28;20484;-49
2022/03/31 10:34:11;;;;;;;38.90;23.57;;;10.10;92.80;;;;;;5044357;28;21626;-49
2022/03/31 10:36:40;;;;;;;29.37;17.80;;;10.10;93.00;;;;;;5049475;28;20482;-49
2022/03/31 10:39:15;;;;;;;44.43;23.53;;;10.10;93.20;;;;;;5039338;28;20477;-48
2022/03/31 10:41:45;;;;;;;35.23;19.27;;;10.20;93.30;;;;;;5048458;28;20480;-49
2022/03/31 10:44:21;;;;;;;51.13;23.90;;;10.50;93.90;;;;;;5048355;28;20489;-48
2022/03/31 10:47:00;;;;;;;37.53;20.10;;;10.60;93.80;;;;;;5049342;28;20833;-49
2022/03/31 10:49:27;;;;;;;46.03;22.27;;;10.80;93.50;;;;;;5050452;28;21121;-49
2022/03/31 10:51:55;;;;;;;34.10;19.10;;;10.90;93.50;;;;;;5049691;28;20805;-48
2022/03/31 10:54:27;;;;;;;31.17;20.13;;;10.90;93.70;;;;;;5045797;28;20477;-48
2022/03/31 10:57:08;;;;;;;37.20;20.70;;;10.80;92.20;;;;;;5026600;28;20476;-48
2022/03/31 10:59:36;;;;;;;25.40;16.13;;;10.80;92.60;;;;;;5048469;28;20545;-48
2022/03/31 11:02:11;;;;;;;36.00;18.80;;;10.70;92.30;;;;;;5059382;28;20478;-49
2022/03/31 11:04:47;;;;;;;33.70;20.80;;;10.70;92.50;;;;;;5034361;28;20489;-48
2022/03/31 11:07:16;;;;;;;26.73;16.27;;;10.70;92.40;;;;;;5057941;28;21211;-47
2022/03/31 11:09:45;;;;;;;26.53;17.17;;;10.60;92.10;;;;;;5045444;28;20557;-49
2022/03/31 18:53:20;;;;;;;34.83;19.60;;;9.10;91.70;;;;;;5036403;28;20556;-48
2022/03/31 18:55:50;;;;;;;31.80;17.20;;;9.00;91.80;;;;;;5019018;28;20531;-48
2022/03/31 18:58:21;;;;;;;34.77;18.70;;;9.00;91.90;;;;;;5037206;28;20501;-49
2022/03/31 19:00:50;;;;;;;31.50;16.27;;;9.00;91.90;;;;;;5048749;28;21054;-47
2022/03/31 19:03:23;;;;;;;42.50;18.40;;;9.00;91.90;;;;;;5048227;28;20524;-48
2022/03/31 19:05:51;;;;;;;33.90;17.97;;;9.00;92.00;;;;;;5049282;28;21161;-48
2022/03/31 19:08:19;;;;;;;49.33;19.43;;;9.00;91.90;;;;;;5050389;28;21487;-48
2022/03/31 19:10:49;;;;;;;30.83;17.30;;;9.00;91.90;;;;;;5049944;28;20477;-49
2022/03/31 19:13:21;;;;;;;32.53;18.60;;;9.10;92.00;;;;;;5051185;28;20496;-48
2022/03/31 19:15:50;;;;;;;41.73;21.30;;;9.00;91.90;;;;;;5048932;28;20508;-48
2022/03/31 19:18:18;;;;;;;27.53;17.40;;;9.10;91.90;;;;;;5049738;28;20778;-48
2022/03/31 19:20:47;;;;;;;33.17;18.63;;;9.10;91.80;;;;;;5049969;28;21151;-48
2022/03/31 19:23:17;;;;;;;50.07;19.13;;;9.10;91.90;;;;;;5050451;28;20476;-47
2022/03/31 19:25:46;;;;;;;31.20;16.93;;;9.10;91.80;;;;;;5049355;28;20516;-50
2022/03/31 19:28:16;;;;;;;28.93;17.47;;;9.10;91.80;;;;;;5048017;28;20473;-48
2022/03/31 19:30:47;;;;;;;31.33;18.80;;;9.10;91.90;;;;;;5052845;28;20475;-48
2022/03/31 19:33:18;;;;;;;34.67;17.60;;;9.00;91.80;;;;;;5020028;28;21034;-48
2022/03/31 19:35:47;;;;;;;34.07;19.20;;;9.00;91.80;;;;;;5023350;28;21064;-48
2022/03/31 19:41:37;;;;;;;27.53;16.67;;;9.00;91.80;;;;;;5013262;28;20481;-48
2022/03/31 19:44:09;;;;;;;34.30;17.83;;;9.00;91.80;;;;;;5048654;28;20497;-48
2022/03/31 19:46:39;;;;;;;34.50;18.80;;;9.00;91.80;;;;;;5042369;28;20887;-48
2022/03/31 19:49:07;;;;;;;35.93;19.07;;;9.00;91.80;;;;;;5053674;28;20481;-48
2022/03/31 19:51:35;;;;;;;28.50;18.13;;;8.90;91.60;;;;;;5053544;28;20514;-48
2022/03/31 19:54:03;;;;;;;37.03;19.67;;;8.90;91.50;;;;;;5052412;28;20480;-48
2022/03/31 19:56:33;;;;;;;45.60;18.23;;;8.90;91.70;;;;;;5049879;28;20500;-48
2022/03/31 19:59:02;;;;;;;38.60;17.80;;;9.00;91.70;;;;;;5052611;28;20488;-48
2022/03/31 20:01:31;;;;;;;33.40;18.67;;;9.00;91.50;;;;;;5053202;28;20829;-48
2022/03/31 20:03:59;;;;;;;47.10;19.00;;;9.00;91.50;;;;;;5050864;28;20481;-48
2022/03/31 20:06:26;;;;;;;44.30;24.40;;;9.10;91.40;;;;;;5026054;28;20551;-48
2022/03/31 20:08:54;;;;;;;36.43;20.37;;;9.00;91.30;;;;;;5052786;28;20952;-48
2022/03/31 20:11:21;;;;;;;35.70;18.90;;;9.00;91.30;;;;;;5041907;28;20481;-47
2022/03/31 20:13:48;;;;;;;32.07;17.83;;;9.00;91.50;;;;;;5048909;28;20599;-48
2022/03/31 20:16:17;;;;;;;31.80;17.57;;;9.00;91.40;;;;;;5053227;28;20563;-48
2022/03/31 20:18:46;;;;;;;35.70;18.20;;;9.00;91.40;;;;;;5052635;28;20491;-47
2022/03/31 20:21:13;;;;;;;33.63;17.47;;;8.90;91.40;;;;;;5052121;28;20507;-48
2022/03/31 20:23:41;;;;;;;30.97;18.13;;;8.80;91.30;;;;;;5050338;28;20576;-48
2022/03/31 20:26:10;;;;;;;107.40;44.30;;;8.80;91.40;;;;;;5053001;28;20488;-49
2022/03/31 20:28:38;;;;;;;36.13;20.10;;;8.80;91.40;;;;;;5042258;28;20488;-48
2022/03/31 20:31:06;;;;;;;30.20;16.73;;;;;;;;;;5050636;28;20485;-54
2022/03/31 20:33:33;;;;;;;26.67;16.80;;;8.70;91.30;;;;;;5050733;28;20505;-49
2022/03/31 20:36:03;;;;;;;30.60;16.77;;;;;;;;;;5051790;28;20473;-49
2022/03/31 20:38:30;;;;;;;38.70;17.70;;;8.80;91.50;;;;;;5052099;28;20485;-49
2022/03/31 20:40:58;;;;;;;30.73;17.77;;;8.80;91.60;;;;;;5051717;28;20559;-48
2022/03/31 20:43:26;;;;;;;27.00;14.27;;;8.70;91.40;;;;;;5052288;28;20477;-49
2022/03/31 20:45:53;;;;;;;34.67;14.57;;;8.60;91.40;;;;;;5051104;28;20482;-49
2022/03/31 20:48:21;;;;;;;14.03;9.87;;;8.60;91.40;;;;;;5053150;28;20506;-48
2022/03/31 20:50:50;;;;;;;15.97;11.77;;;8.40;91.50;;;;;;5051578;28;21011;-48
2022/03/31 20:53:20;;;;;;;20.83;11.20;;;8.40;91.60;;;;;;5052752;28;20871;-48
2022/03/31 20:55:48;;;;;;;15.67;11.37;;;8.30;91.70;;;;;;5049610;28;21124;-47
2022/03/31 20:58:17;;;;;;;15.27;11.70;;;8.40;91.80;;;;;;5052190;28;20485;-48
2022/03/31 21:00:45;;;;;;;25.23;13.07;;;8.30;91.70;;;;;;5051984;28;20992;-48
2022/03/31 21:03:13;;;;;;;15.90;11.37;;;8.20;91.90;;;;;;5051984;28;20480;-48
2022/03/31 21:05:40;;;;;;;17.87;13.00;;;8.20;91.90;;;;;;5048987;28;20478;-48
2022/03/31 21:08:08;;;;;;;20.80;13.33;;;8.20;92.00;;;;;;5049932;28;20482;-48
2022/03/31 21:10:39;;;;;;;13.27;11.60;;;8.20;92.00;;;;;;5050606;28;20480;-49
2022/03/31 21:13:07;;;;;;;19.33;13.10;;;8.10;91.90;;;;;;5045350;28;20496;-48
2022/03/31 21:15:35;;;;;;;15.27;12.20;;;8.10;91.70;;;;;;5044918;28;20481;-48
2022/03/31 21:18:06;;;;;;;19.23;14.53;;;8.10;91.90;;;;;;5038827;28;21319;-49
2022/03/31 21:20:34;;;;;;;30.40;12.47;;;8.20;91.90;;;;;;5050038;28;20973;-49
2022/03/31 21:23:02;;;;;;;20.70;13.40;;;8.20;91.90;;;;;;5036627;28;20478;-49
2022/03/31 21:25:31;;;;;;;17.73;12.63;;;8.20;91.90;;;;;;5046668;28;21064;-49
2022/03/31 21:28:02;;;;;;;25.47;13.83;;;8.20;91.80;;;;;;5050141;28;21247;-49
2022/03/31 21:30:30;;;;;;;24.33;14.70;;;8.20;91.70;;;;;;5039613;28;20596;-48
2022/03/31 21:32:59;;;;;;;19.50;14.00;;;8.20;91.60;;;;;;5046881;28;20486;-49
2022/03/31 21:35:28;;;;;;;25.93;13.53;;;8.20;91.90;;;;;;5048248;28;20473;-49
2022/03/31 21:37:55;;;;;;;22.53;13.90;;;8.20;91.70;;;;;;5048672;28;20943;-49
2022/03/31 21:40:23;;;;;;;22.23;14.57;;;8.20;91.70;;;;;;5048774;28;20894;-49
2022/03/31 21:42:51;;;;;;;19.27;13.80;;;8.20;91.70;;;;;;5047815;28;21030;-49
2022/03/31 21:45:20;;;;;;;16.10;12.40;;;8.20;91.60;;;;;;5047668;28;20487;-49
2022/03/31 21:47:48;;;;;;;17.00;13.47;;;8.20;91.60;;;;;;5034338;28;20488;-48
2022/03/31 21:50:16;;;;;;;22.50;15.17;;;8.20;91.50;;;;;;5048760;28;20911;-50
2022/03/31 21:52:44;;;;;;;18.10;14.17;;;8.20;91.60;;;;;;5046029;28;20491;-49
2022/03/31 21:55:13;;;;;;;20.00;15.43;;;8.20;91.90;;;;;;5036906;28;20480;-49
2022/03/31 21:57:42;;;;;;;21.70;14.10;;;8.10;91.90;;;;;;5049364;28;20580;-49
2022/03/31 22:13:04;;;;;;;46.27;16.20;;;7.60;92.30;;;;;;4993931;28;20553;-49
2022/03/31 22:15:33;;;;;;;20.83;14.13;;;7.70;92.40;;;;;;5004566;28;20478;-49
2022/03/31 22:18:01;;;;;;;21.33;15.37;;;7.70;92.20;;;;;;5005197;28;21310;-48
2022/03/31 22:20:29;;;;;;;25.27;13.73;;;7.60;92.00;;;;;;5006250;28;20472;-49
2022/03/31 22:22:58;;;;;;;24.77;16.30;;;7.60;92.10;;;;;;5002092;28;20549;-50
2022/03/31 22:25:27;;;;;;;20.27;12.57;;;7.60;92.20;;;;;;4996432;28;21055;-49
2022/03/31 22:27:55;;;;;;;20.67;12.97;;;7.50;92.10;;;;;;4994310;28;20481;-48
2022/03/31 22:30:23;;;;;;;23.17;15.37;;;7.50;92.20;;;;;;5004510;28;20480;-49
2022/03/31 22:32:50;;;;;;;17.40;13.30;;;7.50;92.20;;;;;;5005757;28;20486;-49
2022/03/31 22:35:19;;;;;;;22.93;14.17;;;7.50;92.20;;;;;;5026001;28;20591;-48
2022/03/31 22:37:47;;;;;;;17.80;13.60;;;7.40;92.40;;;;;;5047060;28;20487;-48
2022/03/31 22:40:15;;;;;;;19.90;13.80;;;7.40;92.50;;;;;;5049345;28;20508;-49
2022/03/31 22:42:45;;;;;;;18.97;14.77;;;7.40;92.50;;;;;;5046654;28;20491;-49
2022/03/31 22:45:13;;;;;;;18.43;12.77;;;7.40;92.50;;;;;;5045924;28;20540;-49
2022/03/31 22:47:42;;;;;;;26.27;15.60;;;7.30;92.60;;;;;;5035174;28;20495;-49
2022/03/31 22:50:11;;;;;;;20.60;15.77;;;7.30;92.80;;;;;;5045435;28;20558;-49
2022/03/31 22:52:38;;;;;;;20.37;16.27;;;7.40;92.60;;;;;;5038200;28;20960;-49
2022/03/31 22:55:07;;;;;;;19.70;14.63;;;7.50;92.60;;;;;;5043424;28;20477;-49
2022/03/31 22:57:34;;;;;;;18.40;13.87;;;7.40;92.40;;;;;;5047807;28;20992;-49
2022/03/31 23:00:04;;;;;;;20.20;15.23;;;7.40;92.50;;;;;;5045260;28;20506;-49
2022/03/31 23:02:31;;;;;;;25.20;14.50;;;7.40;92.70;;;;;;5034683;28;20481;-49
2022/03/31 23:04:58;;;;;;;21.73;15.43;;;7.40;92.70;;;;;;5045757;28;21080;-48
2022/03/31 23:07:26;;;;;;;20.13;15.07;;;7.30;92.70;;;;;;5046613;28;20533;-49
2022/03/31 23:09:54;;;;;;;28.33;15.80;;;7.40;92.70;;;;;;5047424;28;20486;-48
2022/03/31 23:12:21;;;;;;;19.63;15.03;;;7.40;92.80;;;;;;5049824;28;21106;-49
2022/03/31 23:14:48;;;;;;;18.17;14.20;;;7.40;92.80;;;;;;5053430;28;20511;-48
2022/03/31 23:17:18;;;;;;;27.70;16.47;;;7.50;92.80;;;;;;5059814;28;21274;-49
2022/03/31 23:19:47;;;;;;;20.77;14.63;;;7.40;93.00;;;;;;5055647;28;20969;-49
2022/03/31 23:22:15;;;;;;;22.30;15.27;;;7.40;93.10;;;;;;5059952;28;20485;-49
2022/03/31 23:24:42;;;;;;;22.40;15.90;;;7.40;93.10;;;;;;5062602;28;20798;-49
2022/03/31 23:27:10;;;;;;;16.30;14.37;;;7.30;93.10;;;;;;5060919;28;20569;-49
2022/03/31 23:29:37;;;;;;;22.20;16.60;;;7.40;93.00;;;;;;5060864;28;20540;-49
2022/03/31 23:32:05;;;;;;;21.03;15.00;;;7.40;93.20;;;;;;5046793;28;20480;-49
2022/03/31 23:34:34;;;;;;;22.10;15.97;;;7.30;93.20;;;;;;5054664;28;20517;-50
2022/03/31 23:37:01;;;;;;;19.00;13.77;;;7.30;92.80;;;;;;5056414;28;20559;-49
2022/03/31 23:39:29;;;;;;;21.80;16.57;;;7.30;93.10;;;;;;5062176;28;20488;-49
2022/03/31 23:41:56;;;;;;;18.93;15.40;;;7.30;93.40;;;;;;5047537;28;20485;-49
2022/03/31 23:44:23;;;;;;;18.83;15.70;;;7.30;93.10;;;;;;5057710;28;20507;-49
2022/03/31 23:46:51;;;;;;;18.13;15.50;;;7.30;93.30;;;;;;5060617;28;20468;-49
2022/03/31 23:49:18;;;;;;;18.20;15.70;;;7.30;93.30;;;;;;5060676;28;20489;-49
2022/03/31 23:51:46;;;;;;;26.37;16.27;;;7.30;93.10;;;;;;5059742;28;20488;-49
2022/03/31 23:54:14;;;;;;;20.47;15.40;;;7.30;93.30;;;;;;5061679;28;20486;-48
2022/03/31 23:56:41;;;;;;;20.80;15.40;;;7.30;93.30;;;;;;5063788;28;20543;-49
2022/03/31 23:59:11;;;;;;;23.63;15.63;;;7.20;93.00;;;;;;5048984;28;20476;-49
